Campanya Meteocatpedra
Centenari de l'SMC: 100 anys mirant el cel

Dades de l'estació automàtica Ascó

?
?

Resum diari

22:00 TU
Dades diàries de l'estació meteorològica
Temperatura mitjana 19.2 °C
Temperatura màxima 24.6 °C 12:55 TU
Temperatura mínima 15.4 °C 22:28 TU
Humitat relativa mitjana 52%
Precipitació acumulada 0.0 mm
Ratxa màxima del vent (2 m) 40.3 km/h - 332º 10:34 TU
Irradiació solar global 20.5 MJ/m2

El tram horari està expressat en Temps Universal (TU). Cal sumar una hora en horari d'hivern i dues en horari d'estiu per passar a l'hora oficial.

Ascó

Metadades estació meteorològica
Municipi Ascó
Comarca Ribera d'Ebre
Altitud 257 m
Data alta 15.06.1998
Estat actual Operativa
Dades de període
Període
TU
TM
°C
TX
°C
TN
°C
HRM
%
PPT
mm
VVM (2 m)
km/h
DVM (2 m)
graus
VVX (2 m)
km/h
RS
W/m2
00:00 - 00:30 17.7 17.9 17.4 59 0.0 10.4 259 27.7 0
00:30 - 01:00 17.4 17.5 17.3 60 0.0 9.0 255 25.6 0
01:00 - 01:30 17.2 17.4 16.9 61 0.0 8.6 261 33.1 0
01:30 - 02:00 16.9 17.1 16.6 61 0.0 11.9 267 33.5 0
02:00 - 02:30 16.7 16.8 16.5 61 0.0 10.1 274 23.8 0
02:30 - 03:00 16.4 16.6 16.3 62 0.0 8.6 261 33.5 0
03:00 - 03:30 16.4 16.5 16.2 63 0.0 7.9 277 22.0 0
03:30 - 04:00 16.1 16.3 16.0 64 0.0 6.5 279 19.1 0
04:00 - 04:30 16.1 16.2 15.9 65 0.0 6.8 271 28.4 0
04:30 - 05:00 16.1 16.1 16.0 64 0.0 9.4 273 25.2 0
05:00 - 05:30 15.8 16.0 15.7 65 0.0 6.8 261 28.1 0
05:30 - 06:00 15.9 15.9 15.7 66 0.0 8.6 270 24.1 5
06:00 - 06:30 16.0 16.1 15.9 67 0.0 7.6 260 24.5 36
06:30 - 07:00 16.1 16.4 15.9 67 0.0 8.6 279 28.1 78
07:00 - 07:30 16.6 16.8 16.3 66 0.0 7.9 271 25.6 147
07:30 - 08:00 17.7 18.1 16.9 63 0.0 7.2 277 22.0 339
08:00 - 08:30 18.9 19.7 18.3 59 0.0 5.0 248 26.3 431
08:30 - 09:00 19.5 19.9 19.2 57 0.0 6.5 322 24.1 528
09:00 - 09:30 20.3 20.8 19.8 54 0.0 6.1 343 20.9 591
09:30 - 10:00 21.3 21.6 20.7 51 0.0 6.1 301 26.6 677
10:00 - 10:30 21.5 21.9 21.2 49 0.0 11.2 300 36.7 731
10:30 - 11:00 21.4 21.8 21.1 48 0.0 14.0 317 40.3 771
11:00 - 11:30 22.0 22.1 21.8 46 0.0 13.3 312 33.5 790
11:30 - 12:00 22.7 23.1 22.2 43 0.0 11.9 305 32.0 802
12:00 - 12:30 23.6 24.2 23.1 39 0.0 9.4 307 28.4 800
12:30 - 13:00 24.2 24.6 23.8 37 0.0 8.3 307 26.3 781
13:00 - 13:30 24.2 24.5 23.9 36 0.0 8.3 306 25.2 744
13:30 - 14:00 24.0 24.5 23.7 35 0.0 8.6 319 30.6 694
14:00 - 14:30 23.7 24.2 23.5 35 0.0 10.8 325 27.4 634
14:30 - 15:00 23.8 24.0 23.5 34 0.0 7.9 318 29.9 558
15:00 - 15:30 23.4 23.6 23.2 33 0.0 8.6 313 31.7 474
15:30 - 16:00 23.0 23.3 22.6 34 0.0 9.0 314 25.2 380
16:00 - 16:30 22.2 22.6 21.9 36 0.0 11.5 323 28.4 281
16:30 - 17:00 21.6 21.9 21.0 38 0.0 9.0 320 23.0 151
17:00 - 17:30 20.7 21.0 20.3 41 0.0 5.4 328 20.5 26
17:30 - 18:00 20.1 20.3 19.8 42 0.0 8.6 321 25.9 8
18:00 - 18:30 19.5 19.9 19.2 44 0.0 9.4 330 25.9 0
18:30 - 19:00 19.1 19.2 18.7 44 0.0 7.6 314 20.5 0
19:00 - 19:30 18.5 18.7 18.1 48 0.0 7.2 309 25.2 0
19:30 - 20:00 18.1 18.2 17.9 49 0.0 7.6 298 22.3 0
20:00 - 20:30 17.9 18.0 17.6 50 0.0 9.0 295 22.3 0
20:30 - 21:00 17.3 17.6 17.0 53 0.0 6.1 270 20.5 0
21:00 - 21:30 16.8 17.1 16.6 57 0.0 6.5 263 33.1 0
21:30 - 22:00 16.2 16.6 15.9 61 0.0 11.2 275 31.0 0
22:00 - 22:30 15.6 15.9 15.4 62 0.0 11.9 259 29.5 0

Les dades en taronja només han passat un control de qualitat automàtic. Resta pendent la seva validació definitiva.